Portada
METAR-TAF:

METAR-TAF

Aeroports :

Dakar, Senegal

latitud: 14-44N, longitud: 017-30W, altitud: 27 m

Observació

L'informe es va fer fa 4 hores i 3 minuts, a les 23:00 UTC
Vent 4 kt del Nord
Temperatura 22°C
Humitat 78%
Pressió 1013 hPa
Visibilitat: 4000 m
Pols estès

METAR: GOOY 122300Z 36004KT 4000 DU NSC 22/18 Q1013

Hora: 03:03 (03:03 UTC)

Pronòstic

L'informe es va fer fa 3 hores i 33 minuts, a les 23:30 UTC
Pronòstic vàlid del 13 a les 00 UTC al 14 a les 06 UTC
Vent 8 kt del Nord/Nord-Est
Visibilitat: 4000 m
Pols estès

TAF: GOOY 122330Z 1300/1406 02008KT 4000 DU NSC

Observacions i pronòstics meteorològics de més de 4000 aeroports (METAR i TAF).

Les estacions disponibles són els punts grocs i vermells al mapa.

Posi el ratolí al punt desitjat per veure el nom de l'estació.

Feu clic per veure les observacions i els pronòstics meteorològics.

Per canviar el mapa: feu clic els botons verds amb una creu de color negre per apropar; al botó verd amb un guió per allunyar la imatge; o en les fletxes verdes per a mapes adjacents.


METAR-TAF: